Time;durP1;ratioP1;P1;durP2;ratioP2;P2;SDS_P1;SDS_P2;PMS_P1;PMS_P2;Temp;Humidity;BMP_temperature;BMP_pressure;BME280_temperature;BME280_humidity;BME280_pressure;Samples;Min_cycle;Max_cycle;Signal;HPM_P1;HPM_P2
2022/12/12 00:01:12;;;;;;;;;;;-3.90;99.90;;;;;;5023823;28;19921;-81
2022/12/12 00:03:37;;;;;;;;;;;-4.00;99.90;;;;;;5030293;28;19913;-81
2022/12/12 00:06:04;;;;;;;;;;;-4.00;99.90;;;;;;5029685;28;19917;-81
2022/12/12 00:08:30;;;;;;;;;;;-4.20;99.90;;;;;;5015263;28;19975;-81
2022/12/12 00:10:55;;;;;;;;;;;-4.30;99.90;;;;;;5030145;28;20373;-81
2022/12/12 00:13:21;;;;;;;;;;;-4.40;99.90;;;;;;5030774;28;19964;-81
2022/12/12 00:15:46;;;;;;;;;;;-4.50;99.90;;;;;;5022198;28;19984;-81
2022/12/12 00:18:12;;;;;;;;;;;-4.60;99.90;;;;;;5002772;28;20052;-81
2022/12/12 00:20:37;;;;;;;;;;;-4.80;99.90;;;;;;5029887;28;19918;-81
2022/12/12 00:23:03;;;;;;;;;;;-4.80;99.90;;;;;;5014234;28;19918;-81
2022/12/12 00:25:29;;;;;;;;;;;-4.80;99.90;;;;;;5014779;28;20439;-81
2022/12/12 00:27:54;;;;;;;;;;;-4.80;99.90;;;;;;5012791;28;19920;-81
2022/12/12 00:30:20;;;;;;;;;;;-4.90;99.90;;;;;;4994318;28;19924;-81
2022/12/12 00:32:45;;;;;;;;;;;-4.90;99.90;;;;;;5015262;28;19917;-81
2022/12/12 00:35:11;;;;;;;;;;;-4.80;99.90;;;;;;5023825;28;19917;-82
2022/12/12 00:37:36;;;;;;;;;;;-4.80;99.90;;;;;;5017920;28;19921;-82
2022/12/12 00:40:02;;;;;;;;;;;-4.70;99.90;;;;;;5020281;28;20254;-82
2022/12/12 00:42:28;;;;;;;;;;;-4.60;99.90;;;;;;5001356;28;19918;-82
2022/12/12 00:44:53;;;;;;;;;;;-4.60;99.90;;;;;;5028904;28;19921;-82
2022/12/12 00:47:19;;;;;;;;;;;-4.60;99.90;;;;;;5017462;28;20321;-82
2022/12/12 00:49:44;;;;;;;;;;;-4.50;99.90;;;;;;5018900;28;20436;-82
2022/12/12 00:52:10;;;;;;;;;;;-4.50;99.90;;;;;;5017225;28;20289;-82
2022/12/12 00:54:35;;;;;;;;;;;-4.50;99.90;;;;;;5015397;28;20297;-82
2022/12/12 00:57:01;;;;;;;;;;;-4.40;99.90;;;;;;5023287;28;19959;-82
2022/12/12 00:59:26;;;;;;;;;;;-4.40;99.90;;;;;;5035898;28;19913;-82
2022/12/12 01:01:52;;;;;;;;;;;-4.40;99.90;;;;;;5025177;28;19925;-82
2022/12/12 01:04:18;;;;;;;;;;;-4.40;99.90;;;;;;4995667;28;20052;-82
2022/12/12 01:06:43;;;;;;;;;;;-4.30;99.90;;;;;;5014652;28;19921;-82
2022/12/12 01:09:09;;;;;;;;;;;-4.30;99.90;;;;;;5011881;28;19917;-82
2022/12/12 01:11:34;;;;;;;;;;;-4.30;99.90;;;;;;5012953;28;19925;-82
2022/12/12 01:14:00;;;;;;;;;;;-4.30;99.90;;;;;;5012849;28;19984;-82
2022/12/12 01:16:25;;;;;;;;;;;-4.30;99.90;;;;;;5027453;28;19917;-82
2022/12/12 01:18:51;;;;;;;;;;;-4.40;99.90;;;;;;5011994;28;19921;-82
2022/12/12 01:21:18;;;;;;;;;;;-4.30;99.90;;;;;;5015710;28;19917;-82
2022/12/12 01:23:44;;;;;;;;;;;-4.30;99.90;;;;;;5018145;28;19917;-82
2022/12/12 01:26:12;;;;;;;;;;;-4.30;99.90;;;;;;5016420;28;20295;-82
2022/12/12 01:28:37;;;;;;;;;;;-4.30;99.90;;;;;;5013803;28;20464;-81
2022/12/12 01:31:04;;;;;;;;;;;-4.40;99.90;;;;;;5015705;28;19953;-81
2022/12/12 01:33:29;;;;;;;;;;;-4.40;99.90;;;;;;5015023;28;19957;-81
2022/12/12 01:35:55;;;;;;;;;;;-4.40;99.90;;;;;;5015426;28;19963;-81
2022/12/12 01:38:23;;;;;;;;;;;-4.40;99.90;;;;;;5012737;28;20365;-81
2022/12/12 01:40:49;;;;;;;;;;;-4.30;99.90;;;;;;5013242;28;20013;-81
2022/12/12 01:43:16;;;;;;;;;;;-4.30;99.90;;;;;;5018556;28;19914;-81
2022/12/12 01:46:11;;;;;;;;;;;-4.30;99.90;;;;;;5020115;28;20373;-81
2022/12/12 01:48:40;;;;;;;;;;;-4.30;99.90;;;;;;5008206;28;19964;-81
2022/12/12 01:51:09;;;;;;;;;;;-4.30;99.90;;;;;;5016709;28;19913;-81
2022/12/12 01:53:35;;;;;;;;;;;-4.30;99.90;;;;;;5013933;28;20281;-81
2022/12/12 01:56:04;;;;;;;;;;;-4.30;99.90;;;;;;5022337;28;19918;-81
2022/12/12 01:58:30;;;;;;;;;;;-4.30;99.90;;;;;;5014635;28;19918;-81
2022/12/12 02:00:56;;;;;;;;;;;-4.30;99.90;;;;;;5015501;28;19925;-81
2022/12/12 02:03:22;;;;;;;;;;;-4.40;99.90;;;;;;5032903;28;19921;-82
2022/12/12 02:05:52;;;;;;;;;;;-4.40;99.90;;;;;;5020590;28;19928;-81
2022/12/12 02:08:19;;;;;;;;;;;-4.40;99.90;;;;;;5007334;28;19956;-81
2022/12/12 02:10:45;;;;;;;;;;;-4.40;99.90;;;;;;5013306;28;19922;-81
2022/12/12 02:13:13;;;;;;;;;;;-4.40;99.90;;;;;;5023114;28;20431;-81
2022/12/12 02:15:38;;;;;;;;;;;-4.40;99.90;;;;;;5018191;28;19981;-81
2022/12/12 02:18:04;;;;;;;;;;;-4.40;99.90;;;;;;5016755;28;19921;-81
2022/12/12 02:20:36;;;;;;;;;;;-4.40;99.90;;;;;;5001758;28;19910;-81
2022/12/12 02:23:17;;;;;;;;;;;-4.50;99.90;;;;;;5001472;28;19920;-81
2022/12/12 02:25:42;;;;;;;;;;;-4.50;99.90;;;;;;5012359;28;20381;-81
2022/12/12 02:28:20;;;;;;;;;;;-4.50;99.90;;;;;;5015110;28;19913;-81
2022/12/12 02:30:58;;;;;;;;;;;-4.60;99.90;;;;;;5021943;28;19914;-81
2022/12/12 02:33:23;;;;;;;;;;;-4.60;99.90;;;;;;5018464;28;19929;-81
2022/12/12 02:35:55;;;;;;;;;;;-4.60;99.90;;;;;;5016297;28;19909;-81
2022/12/12 02:38:26;;;;;;;;;;;-4.70;99.90;;;;;;5012158;28;19922;-81
2022/12/12 02:40:54;;;;;;;;;;;-4.70;99.90;;;;;;5027568;28;19913;-82
2022/12/12 02:43:29;;;;;;;;;;;-4.70;99.90;;;;;;5024615;28;19913;-81
2022/12/12 02:45:56;;;;;;;;;;;-4.70;99.90;;;;;;5018450;28;19921;-81
2022/12/12 02:48:22;;;;;;;;;;;-4.70;99.90;;;;;;5017418;28;19964;-81
2022/12/12 02:50:49;;;;;;;;;;;-4.70;99.90;;;;;;5018516;28;19914;-81
2022/12/12 02:53:19;;;;;;;;;;;-4.70;99.90;;;;;;5014285;28;19930;-81
2022/12/12 02:55:44;;;;;;;;;;;-4.80;99.90;;;;;;5028153;28;19925;-81
2022/12/12 02:58:11;;;;;;;;;;;-4.80;99.90;;;;;;5014891;28;19917;-81
2022/12/12 03:00:48;;;;;;;;;;;-4.90;99.90;;;;;;5012376;28;19917;-81
2022/12/12 03:08:41;;;;;;;;;;;-4.80;99.90;;;;;;5016056;28;19947;-81
2022/12/12 03:11:09;;;;;;;;;;;-4.80;99.90;;;;;;5014433;28;20019;-81
2022/12/12 03:13:35;;;;;;;;;;;-4.80;99.90;;;;;;5019012;28;19913;-81
2022/12/12 03:16:05;;;;;;;;;;;-4.80;99.90;;;;;;5022780;28;19977;-81
2022/12/12 03:18:30;;;;;;;;;;;-4.80;99.90;;;;;;5030045;28;20340;-81
2022/12/12 03:21:04;;;;;;;;;;;-4.80;99.90;;;;;;5015785;28;19913;-81
2022/12/12 03:23:43;;;;;;;;;;;-4.80;99.90;;;;;;5016636;28;19920;-81
2022/12/12 03:26:15;;;;;;;;;;;-4.90;99.90;;;;;;5007034;28;19914;-81
2022/12/12 03:28:46;;;;;;;;;;;-4.90;99.90;;;;;;5015044;28;19914;-81
2022/12/12 03:31:13;;;;;;;;;;;-4.90;99.90;;;;;;5013202;28;20273;-81
2022/12/12 03:34:00;;;;;;;;;;;-4.90;99.90;;;;;;5013438;28;19924;-81
2022/12/12 03:36:28;;;;;;;;;;;-4.90;99.90;;;;;;5017786;28;19913;-81
2022/12/12 03:38:57;;;;;;;;;;;-5.00;99.90;;;;;;5019224;28;19921;-81
2022/12/12 03:41:29;;;;;;;;;;;-5.00;99.90;;;;;;5020624;28;19913;-81
2022/12/12 03:43:58;;;;;;;;;;;-5.00;99.90;;;;;;5013729;28;19948;-81
2022/12/12 03:46:29;;;;;;;;;;;-5.00;99.90;;;;;;5023069;28;19913;-81
2022/12/12 03:48:55;;;;;;;;;;;-5.00;99.90;;;;;;5014358;28;19920;-81
2022/12/12 03:51:30;;;;;;;;;;;-5.00;99.90;;;;;;5025580;28;19913;-81
2022/12/12 03:54:00;;;;;;;;;;;-5.00;99.90;;;;;;5021702;28;19913;-81
2022/12/12 03:56:52;;;;;;;;;;;-5.10;99.90;;;;;;5015183;28;19917;-81
2022/12/12 03:59:20;;;;;;;;;;;-5.20;99.90;;;;;;5031370;28;19972;-81
2022/12/12 04:01:56;;;;;;;;;;;-5.20;99.90;;;;;;5016627;28;19914;-81
2022/12/12 04:04:24;;;;;;;;;;;-5.20;99.90;;;;;;5016632;28;19936;-81
2022/12/12 04:06:54;;;;;;;;;;;-5.20;99.90;;;;;;5026622;28;19956;-81
2022/12/12 04:15:16;;;;;;;;;;;-5.10;99.90;;;;;;5023106;28;20089;-81
2022/12/12 04:17:42;;;;;;;;;;;-5.10;99.90;;;;;;5021678;28;19917;-81
2022/12/12 04:23:27;;;;;;;;;;;-5.10;99.90;;;;;;5020773;28;20335;-81
2022/12/12 04:28:39;;;;;;;;;;;-5.10;99.90;;;;;;5019518;28;20452;-81
2022/12/12 04:31:06;;;;;;;;;;;-5.20;99.90;;;;;;5018365;28;20003;-81
2022/12/12 04:33:39;;;;;;;;;;;-5.20;99.90;;;;;;5031847;28;19930;-81
2022/12/12 04:36:07;;;;;;;;;;;-5.20;99.90;;;;;;5015220;28;19913;-82
2022/12/12 04:38:33;;;;;;;;;;;-5.20;99.90;;;;;;5013864;28;19926;-82
2022/12/12 04:40:59;;;;;;;;;;;-5.20;99.90;;;;;;5027291;28;19966;-82
2022/12/12 04:43:30;;;;;;;;;;;-5.20;99.90;;;;;;5019891;28;19956;-82
2022/12/12 04:45:57;;;;;;;;;;;-5.20;99.90;;;;;;5017084;28;19914;-82
2022/12/12 04:48:27;;;;;;;;;;;-5.20;99.90;;;;;;5017038;28;19909;-81
2022/12/12 04:50:53;;;;;;;;;;;-5.30;99.90;;;;;;5014516;28;19945;-82
2022/12/12 04:53:21;;;;;;;;;;;-5.30;99.90;;;;;;5027911;28;20322;-82
2022/12/12 04:55:50;;;;;;;;;;;-5.30;99.90;;;;;;5015521;28;20008;-82
2022/12/12 04:58:16;;;;;;;;;;;-5.30;99.90;;;;;;5014780;28;20016;-82
2022/12/12 05:00:46;;;;;;;;;;;-5.40;99.90;;;;;;5016313;28;20008;-81
2022/12/12 05:03:23;;;;;;;;;;;-5.40;99.90;;;;;;5016127;28;19921;-81
2022/12/12 05:05:49;;;;;;;;;;;-5.50;99.90;;;;;;5016048;28;20032;-81
2022/12/12 05:08:22;;;;;;;;;;;-5.40;99.90;;;;;;5004461;28;19952;-82
2022/12/12 05:10:53;;;;;;;;;;;-5.50;99.90;;;;;;5008893;28;19921;-81
2022/12/12 05:13:20;;;;;;;;;;;-5.40;99.90;;;;;;5011886;28;19913;-82
2022/12/12 05:15:47;;;;;;;;;;;-5.40;99.90;;;;;;5014331;28;19918;-82
2022/12/12 05:18:12;;;;;;;;;;;-5.50;99.90;;;;;;5014777;28;19913;-81
2022/12/12 05:20:38;;;;;;;;;;;-5.40;99.90;;;;;;5012639;28;20263;-81
2022/12/12 05:23:04;;;;;;;;;;;-5.40;99.90;;;;;;4994962;28;20445;-81
2022/12/12 05:25:29;;;;;;;;;;;-5.50;99.90;;;;;;5014258;28;19960;-81
2022/12/12 05:27:55;;;;;;;;;;;-5.50;99.90;;;;;;5011475;28;19917;-81
2022/12/12 05:30:21;;;;;;;;;;;-5.60;99.90;;;;;;5015318;28;19914;-80
2022/12/12 05:32:46;;;;;;;;;;;-5.60;99.90;;;;;;5014144;28;19917;-80
2022/12/12 05:35:12;;;;;;;;;;;-5.70;99.90;;;;;;5015388;28;19936;-81
2022/12/12 05:37:38;;;;;;;;;;;-5.70;99.90;;;;;;5013695;28;19917;-81
2022/12/12 05:40:04;;;;;;;;;;;-5.80;99.90;;;;;;5014956;28;20358;-81
2022/12/12 05:42:30;;;;;;;;;;;-5.80;99.90;;;;;;5012389;28;19919;-81
2022/12/12 05:44:55;;;;;;;;;;;-5.90;99.90;;;;;;5011999;28;19921;-81
2022/12/12 05:47:21;;;;;;;;;;;-5.90;99.90;;;;;;5014996;28;20012;-81
2022/12/12 05:49:47;;;;;;;;;;;-5.90;99.90;;;;;;5013729;28;19960;-80
2022/12/12 05:52:12;;;;;;;;;;;-5.90;99.90;;;;;;5015313;28;19910;-80
2022/12/12 05:54:39;;;;;;;;;;;-5.90;99.90;;;;;;5015209;28;20369;-80
2022/12/12 05:57:05;;;;;;;;;;;-5.90;99.90;;;;;;5014285;28;20281;-80
2022/12/12 05:59:30;;;;;;;;;;;-6.00;99.90;;;;;;5013689;28;19933;-80
2022/12/12 06:01:56;;;;;;;;;;;-6.00;99.90;;;;;;5014376;28;19913;-80
2022/12/12 06:04:21;;;;;;;;;;;-6.00;99.90;;;;;;5014585;28;19913;-80
2022/12/12 06:06:47;;;;;;;;;;;-6.10;99.90;;;;;;5013567;28;19913;-80
2022/12/12 06:09:12;;;;;;;;;;;-6.10;99.90;;;;;;5016666;28;19909;-80
2022/12/12 06:11:38;;;;;;;;;;;-6.20;99.90;;;;;;5033343;28;20002;-80
2022/12/12 06:14:03;;;;;;;;;;;-6.20;99.90;;;;;;5033390;28;19925;-80
2022/12/12 06:16:29;;;;;;;;;;;-6.20;99.90;;;;;;5034273;28;19920;-78
2022/12/12 06:18:55;;;;;;;;;;;-6.20;99.90;;;;;;5034606;28;20007;-78
2022/12/12 06:21:21;;;;;;;;;;;-6.30;99.90;;;;;;5034029;28;19939;-78
2022/12/12 06:23:46;;;;;;;;;;;-6.30;99.90;;;;;;5032908;28;19917;-79
2022/12/12 06:26:13;;;;;;;;;;;-6.30;99.90;;;;;;5021576;28;19914;-79
2022/12/12 06:28:38;;;;;;;;;;;-6.40;99.90;;;;;;5010934;28;19914;-79
2022/12/12 06:31:04;;;;;;;;;;;-6.40;99.90;;;;;;5014391;28;19949;-79
2022/12/12 06:33:34;;;;;;;;;;;-6.40;99.90;;;;;;5013242;28;19921;-78
2022/12/12 06:36:23;;;;;;;;;;;-6.50;99.90;;;;;;5038813;23;20265;-79
2022/12/12 06:38:52;;;;;;;;;;;-6.60;99.90;;;;;;5075299;28;19924;-80
2022/12/12 06:41:18;;;;;;;;;;;-6.60;99.90;;;;;;5074223;28;19971;-79
2022/12/12 06:43:44;;;;;;;;;;;-6.70;99.90;;;;;;5074475;28;19995;-80
2022/12/12 06:46:14;;;;;;;;;;;-6.70;99.90;;;;;;5075064;28;19950;-80
2022/12/12 06:48:39;;;;;;;;;;;-6.80;99.90;;;;;;5073396;28;20024;-80
2022/12/12 06:51:06;;;;;;;;;;;-6.90;99.90;;;;;;5053079;22;20381;-78
2022/12/12 06:53:31;;;;;;;;;;;-7.00;99.90;;;;;;5014303;28;19965;-78
2022/12/12 06:55:57;;;;;;;;;;;-7.00;99.90;;;;;;5013972;28;19944;-78
2022/12/12 06:58:22;;;;;;;;;;;-7.00;99.90;;;;;;5014134;28;20361;-78
2022/12/12 07:00:52;;;;;;;;;;;-7.00;99.90;;;;;;5014171;28;20316;-78
2022/12/12 07:03:17;;;;;;;;;;;-7.10;99.90;;;;;;5014291;28;19909;-78
2022/12/12 07:05:44;;;;;;;;;;;-7.10;99.90;;;;;;5013884;28;19965;-78
2022/12/12 07:08:09;;;;;;;;;;;-7.10;99.90;;;;;;4996402;28;19968;-78
2022/12/12 07:10:35;;;;;;;;;;;-7.10;99.90;;;;;;5012957;28;19953;-78
2022/12/12 07:13:01;;;;;;;;;;;-7.00;99.90;;;;;;5014091;28;19914;-78
2022/12/12 07:15:26;;;;;;;;;;;-6.90;99.90;;;;;;5013063;28;20385;-78
2022/12/12 07:17:52;;;;;;;;;;;-6.90;99.90;;;;;;5014102;28;19925;-78
2022/12/12 07:20:18;;;;;;;;;;;-6.80;99.90;;;;;;5012355;28;20004;-78
2022/12/12 07:22:44;;;;;;;;;;;-6.70;99.90;;;;;;5013971;28;19913;-78
2022/12/12 07:25:09;;;;;;;;;;;-6.70;99.90;;;;;;5013694;28;19920;-78
2022/12/12 07:27:35;;;;;;;;;;;-6.80;99.90;;;;;;5013906;28;19920;-78
2022/12/12 07:30:01;;;;;;;;;;;-6.80;99.90;;;;;;5012156;28;20381;-78
2022/12/12 07:32:26;;;;;;;;;;;-6.70;99.90;;;;;;5012175;28;19921;-78
2022/12/12 07:34:52;;;;;;;;;;;-6.80;99.90;;;;;;5012229;28;19921;-78
2022/12/12 07:37:18;;;;;;;;;;;-6.70;99.90;;;;;;5013809;28;20011;-78
2022/12/12 07:39:43;;;;;;;;;;;-6.70;99.90;;;;;;5013343;28;19918;-78
2022/12/12 07:42:09;;;;;;;;;;;-6.60;99.90;;;;;;5011768;28;20012;-78
2022/12/12 07:44:34;;;;;;;;;;;-6.60;99.90;;;;;;5011487;28;19913;-78
2022/12/12 07:47:00;;;;;;;;;;;-6.60;99.90;;;;;;5011192;28;19913;-78
2022/12/12 07:49:27;;;;;;;;;;;-6.60;99.90;;;;;;5008363;28;19910;-78
2022/12/12 07:51:53;;;;;;;;;;;-6.50;99.90;;;;;;5011241;28;20332;-78
2022/12/12 07:54:18;;;;;;;;;;;-6.50;99.90;;;;;;5006724;28;19921;-78
2022/12/12 07:56:44;;;;;;;;;;;-6.50;99.90;;;;;;5016993;28;19913;-78
2022/12/12 07:59:09;;;;;;;;;;;-6.50;99.90;;;;;;5016912;28;19967;-78
2022/12/12 08:01:35;;;;;;;;;;;-6.60;99.90;;;;;;5016896;28;20373;-78
2022/12/12 08:04:01;;;;;;;;;;;-6.60;99.90;;;;;;5015699;28;19992;-78
2022/12/12 08:06:26;;;;;;;;;;;-6.50;99.90;;;;;;5016701;28;19921;-78
2022/12/12 08:08:52;;;;;;;;;;;-6.50;99.90;;;;;;5015919;28;19920;-78
2022/12/12 08:11:19;;;;;;;;;;;-6.50;99.90;;;;;;5016883;28;20009;-78
2022/12/12 08:13:44;;;;;;;;;;;-6.50;99.90;;;;;;5017019;28;20354;-78
2022/12/12 08:16:14;;;;;;;;;;;-6.40;99.90;;;;;;5015735;28;19920;-78
2022/12/12 08:18:40;;;;;;;;;;;-6.40;99.90;;;;;;5016584;28;20330;-78
2022/12/12 08:21:07;;;;;;;;;;;-6.30;99.90;;;;;;5013623;28;19949;-78
2022/12/12 08:23:32;;;;;;;;;;;-6.20;99.90;;;;;;5015000;28;20361;-78
2022/12/12 08:26:01;;;;;;;;;;;-6.20;99.90;;;;;;5015195;28;19913;-78
2022/12/12 08:28:27;;;;;;;;;;;-6.20;99.90;;;;;;5017382;28;19910;-78
2022/12/12 08:30:53;;;;;;;;;;;-6.20;99.90;;;;;;4999837;28;20400;-78
2022/12/12 08:33:18;;;;;;;;;;;-6.10;99.90;;;;;;5015312;28;19920;-78
2022/12/12 08:35:44;;;;;;;;;;;-6.20;99.90;;;;;;5016159;28;19952;-78
2022/12/12 08:38:09;;;;;;;;;;;-6.10;99.90;;;;;;5016284;28;19917;-78
2022/12/12 08:40:35;;;;;;;;;;;-6.10;99.90;;;;;;5014594;28;19917;-78
2022/12/12 08:43:00;;;;;;;;;;;-6.00;99.90;;;;;;5015794;28;19917;-78
2022/12/12 08:45:26;;;;;;;;;;;-6.00;99.90;;;;;;5015210;28;20377;-78
2022/12/12 08:47:51;;;;;;;;;;;-5.90;99.90;;;;;;5016076;28;20008;-78
2022/12/12 08:50:17;;;;;;;;;;;-5.90;99.90;;;;;;5015634;28;19910;-78
2022/12/12 08:52:43;;;;;;;;;;;-5.90;99.90;;;;;;5016383;28;20404;-78
2022/12/12 08:55:09;;;;;;;;;;;-5.90;99.90;;;;;;5014746;28;19914;-78
2022/12/12 08:57:35;;;;;;;;;;;-6.00;99.90;;;;;;5014583;28;19933;-78
2022/12/12 09:00:01;;;;;;;;;;;-6.00;99.90;;;;;;5015817;28;19914;-78
2022/12/12 09:02:27;;;;;;;;;;;-6.00;99.90;;;;;;5014585;28;19916;-78
2022/12/12 09:04:52;;;;;;;;;;;-6.00;99.90;;;;;;5015173;28;20008;-78
2022/12/12 09:07:18;;;;;;;;;;;-6.00;99.90;;;;;;5014807;28;19913;-78
2022/12/12 09:09:43;;;;;;;;;;;-5.90;99.90;;;;;;5015922;28;19949;-78
2022/12/12 09:12:09;;;;;;;;;;;-5.90;99.90;;;;;;5014561;28;19918;-78
2022/12/12 09:14:35;;;;;;;;;;;-5.90;99.90;;;;;;5014700;28;19920;-78
2022/12/12 09:17:00;;;;;;;;;;;-5.90;99.90;;;;;;5016159;28;19914;-78
2022/12/12 09:19:26;;;;;;;;;;;-5.80;99.90;;;;;;5015442;28;19917;-78
2022/12/12 09:21:51;;;;;;;;;;;-5.80;99.90;;;;;;5015467;28;19979;-78
2022/12/12 09:24:17;;;;;;;;;;;-5.80;99.90;;;;;;5015400;28;19920;-78
2022/12/12 09:26:42;;;;;;;;;;;-5.80;99.90;;;;;;5014233;28;19914;-78
2022/12/12 09:29:09;;;;;;;;;;;-5.90;99.90;;;;;;5015405;28;19921;-78
2022/12/12 09:31:34;;;;;;;;;;;-5.90;99.90;;;;;;5015451;28;20361;-78
2022/12/12 09:34:00;;;;;;;;;;;-5.90;99.90;;;;;;5013805;28;19913;-78
2022/12/12 09:36:25;;;;;;;;;;;-5.90;99.90;;;;;;5014156;28;19918;-78
2022/12/12 09:38:51;;;;;;;;;;;-5.90;99.90;;;;;;5015156;28;19918;-78
2022/12/12 09:41:18;;;;;;;;;;;-5.80;99.90;;;;;;5010234;28;19965;-78
2022/12/12 09:43:53;;;;;;;;;;;-5.80;99.90;;;;;;5012453;28;19913;-78
2022/12/12 09:46:33;;;;;;;;;;;-5.60;99.90;;;;;;5013818;28;19910;-78
2022/12/12 09:49:25;;;;;;;;;;;-5.50;99.90;;;;;;5013252;28;19937;-78
2022/12/12 09:51:51;;;;;;;;;;;-5.50;99.90;;;;;;5014121;28;19976;-78
2022/12/12 09:54:19;;;;;;;;;;;-5.50;99.90;;;;;;5015306;28;19909;-78
2022/12/12 09:56:49;;;;;;;;;;;-5.50;99.90;;;;;;5014892;28;19996;-78
2022/12/12 09:59:25;;;;;;;;;;;-5.50;99.90;;;;;;5014918;28;19913;-78
2022/12/12 10:02:01;;;;;;;;;;;-5.40;99.90;;;;;;5014975;28;19914;-78
2022/12/12 10:04:53;;;;;;;;;;;-5.30;99.90;;;;;;5014876;28;19975;-78
2022/12/12 10:07:22;;;;;;;;;;;-5.20;99.90;;;;;;5013475;28;19996;-78
2022/12/12 10:09:50;;;;;;;;;;;-5.00;99.90;;;;;;5012365;28;20289;-78
2022/12/12 10:12:18;;;;;;;;;;;-4.90;99.90;;;;;;5012899;28;19910;-78
2022/12/12 10:14:43;;;;;;;;;;;-4.90;99.90;;;;;;5013726;28;19910;-78
2022/12/12 10:17:16;;;;;;;;;;;-4.80;99.90;;;;;;5012987;28;20361;-78
2022/12/12 10:19:47;;;;;;;;;;;-4.80;99.90;;;;;;5014485;28;20362;-78
2022/12/12 10:22:29;;;;;;;;;;;-4.70;99.90;;;;;;5015195;28;20406;-78
2022/12/12 10:24:58;;;;;;;;;;;-4.70;99.90;;;;;;5013957;28;19917;-78
2022/12/12 10:27:24;;;;;;;;;;;-4.60;99.90;;;;;;5013298;28;19910;-78
2022/12/12 10:29:49;;;;;;;;;;;-4.60;99.90;;;;;;5014832;28;19913;-78
2022/12/12 10:32:38;;;;;;;;;;;-4.50;99.90;;;;;;5014371;28;19947;-78
2022/12/12 10:35:04;;;;;;;;;;;-4.30;99.90;;;;;;5009626;28;19959;-78
2022/12/12 10:37:41;;;;;;;;;;;-4.10;99.90;;;;;;4994791;28;19917;-78
2022/12/12 10:40:10;;;;;;;;;;;-4.00;99.90;;;;;;4994811;28;19917;-78
2022/12/12 10:42:35;;;;;;;;;;;-3.90;99.90;;;;;;4993509;28;19910;-78
2022/12/12 10:45:30;;;;;;;;;;;-3.80;99.90;;;;;;4994590;28;20400;-78
2022/12/12 10:47:56;;;;;;;;;;;-3.70;99.90;;;;;;4976742;28;20384;-78
2022/12/12 10:50:25;;;;;;;;;;;-3.70;99.90;;;;;;4994578;28;19914;-78
2022/12/12 10:52:50;;;;;;;;;;;-3.70;99.90;;;;;;4994942;28;19910;-78
2022/12/12 10:55:39;;;;;;;;;;;-3.70;99.90;;;;;;4994849;28;20370;-78
2022/12/12 10:58:05;;;;;;;;;;;-3.70;99.90;;;;;;4990107;28;20392;-78
2022/12/12 11:00:32;;;;;;;;;;;-3.70;99.90;;;;;;4994746;28;19910;-78
2022/12/12 11:02:58;;;;;;;;;;;-3.70;99.90;;;;;;4994567;28;19933;-78
2022/12/12 11:05:25;;;;;;;;;;;-3.60;99.90;;;;;;5011761;28;19960;-78
2022/12/12 11:08:05;;;;;;;;;;;-3.60;99.90;;;;;;5013006;28;20349;-78
2022/12/12 11:10:34;;;;;;;;;;;-3.60;99.90;;;;;;5000487;28;19945;-78
2022/12/12 11:13:12;;;;;;;;;;;-3.50;99.90;;;;;;4994817;28;20004;-78
2022/12/12 11:16:04;;;;;;;;;;;-3.60;99.90;;;;;;4995148;28;19937;-78
2022/12/12 11:18:30;;;;;;;;;;;-3.60;99.90;;;;;;4993260;28;19964;-78
2022/12/12 11:21:02;;;;;;;;;;;-3.60;99.90;;;;;;4994693;28;19914;-78
2022/12/12 11:23:28;;;;;;;;;;;-3.70;99.90;;;;;;4994972;28;19917;-78
2022/12/12 11:25:58;;;;;;;;;;;-3.70;99.90;;;;;;4993435;28;19914;-78
2022/12/12 11:28:25;;;;;;;;;;;-3.70;99.90;;;;;;4997957;28;19910;-78
2022/12/12 11:30:53;;;;;;;;;;;-3.70;99.90;;;;;;4998545;28;20351;-78
2022/12/12 11:33:21;;;;;;;;;;;-3.60;99.90;;;;;;5005668;28;19917;-78
2022/12/12 11:35:52;;;;;;;;;;;-3.60;99.90;;;;;;5020135;28;20005;-78
2022/12/12 11:38:19;;;;;;;;;;;-3.50;99.90;;;;;;5016458;28;19913;-78
2022/12/12 11:40:45;;;;;;;;;;;-3.50;99.90;;;;;;5017380;28;19935;-78
2022/12/12 11:43:27;;;;;;;;;;;-3.40;99.90;;;;;;5017518;28;19914;-78
2022/12/12 11:46:00;;;;;;;;;;;-3.40;99.90;;;;;;5016266;28;19914;-78
2022/12/12 11:48:43;;;;;;;;;;;-3.40;99.90;;;;;;5017080;28;19917;-78
2022/12/12 11:51:08;;;;;;;;;;;-3.40;99.90;;;;;;5014543;28;20012;-78
2022/12/12 11:53:36;;;;;;;;;;;-3.30;99.90;;;;;;5015220;28;20006;-78
2022/12/12 11:56:13;;;;;;;;;;;-3.30;99.90;;;;;;5016972;28;19959;-78
2022/12/12 11:58:51;;;;;;;;;;;-3.30;99.90;;;;;;5015652;28;19917;-78
2022/12/12 12:01:26;;;;;;;;;;;-3.20;99.90;;;;;;5016815;28;19909;-78
2022/12/12 12:03:54;;;;;;;;;;;-3.10;99.90;;;;;;5015197;28;19909;-78
2022/12/12 12:06:38;;;;;;;;;;;-3.00;99.90;;;;;;5016825;28;20312;-78
2022/12/12 12:09:03;;;;;;;;;;;-2.90;99.90;;;;;;5016960;28;20259;-78
2022/12/12 12:11:37;;;;;;;;;;;-2.90;99.90;;;;;;5016775;28;19921;-78
2022/12/12 12:14:16;;;;;;;;;;;-2.80;99.90;;;;;;5017108;28;19909;-78
2022/12/12 12:16:48;;;;;;;;;;;-2.80;99.90;;;;;;5016912;28;19917;-78
2022/12/12 12:19:25;;;;;;;;;;;-2.80;99.90;;;;;;5016535;28;20013;-78
2022/12/12 12:22:09;;;;;;;;;;;-2.90;99.90;;;;;;5016998;28;19909;-78
2022/12/12 12:24:39;;;;;;;;;;;-2.90;99.90;;;;;;5016817;28;19913;-78
2022/12/12 12:27:17;;;;;;;;;;;-2.90;99.90;;;;;;5016854;28;20368;-78
2022/12/12 12:30:01;;;;;;;;;;;-2.80;99.90;;;;;;5016478;28;20357;-78
2022/12/12 12:32:27;;;;;;;;;;;-2.80;99.90;;;;;;5015541;28;19971;-78
2022/12/12 12:35:07;;;;;;;;;;;-2.70;99.90;;;;;;5015150;28;20361;-78
2022/12/12 12:37:42;;;;;;;;;;;-2.60;99.90;;;;;;5016453;28;19913;-78
2022/12/12 12:40:26;;;;;;;;;;;-2.60;99.90;;;;;;5014434;28;19913;-78
2022/12/12 12:42:57;;;;;;;;;;;-2.50;99.90;;;;;;5016554;28;19959;-78
2022/12/12 12:45:26;;;;;;;;;;;-2.40;99.90;;;;;;5016507;28;19909;-78
2022/12/12 12:48:00;;;;;;;;;;;-2.40;99.90;;;;;;5016299;28;19913;-78
2022/12/12 12:50:58;;;;;;;;;;;-2.30;99.90;;;;;;5033671;23;19928;-67
2022/12/12 12:53:24;;;;;;;;;;;-2.30;99.90;;;;;;5085508;28;19974;-67
2022/12/12 12:55:51;;;;;;;;;;;-2.20;99.90;;;;;;5075495;28;19908;-67
2022/12/12 12:58:19;;;;;;;;;;;-2.20;99.90;;;;;;5075380;28;19939;-67
2022/12/12 13:00:57;;;;;;;;;;;-2.10;99.90;;;;;;5075453;28;19913;-67
2022/12/12 13:03:26;;;;;;;;;;;-2.10;99.90;;;;;;5075796;28;19909;-67
2022/12/12 13:05:53;;;;;;;;;;;-2.10;99.90;;;;;;5074123;28;20368;-67
2022/12/12 13:08:51;;;;;;;;;;;-2.10;99.90;;;;;;5075334;28;20395;-67
2022/12/12 13:11:19;;;;;;;;;;;-2.10;99.90;;;;;;5074015;28;19916;-67
2022/12/12 13:13:46;;;;;;;;;;;-2.00;99.90;;;;;;5075331;28;20054;-67
2022/12/12 13:16:17;;;;;;;;;;;-2.10;99.90;;;;;;5075464;28;20057;-67
2022/12/12 13:18:44;;;;;;;;;;;-2.10;99.90;;;;;;5075326;28;20017;-67
2022/12/12 13:21:30;;;;;;;;;;;-2.20;99.90;;;;;;5075580;28;19908;-67
2022/12/12 13:24:00;;;;;;;;;;;-2.30;99.90;;;;;;5074342;28;19909;-67
2022/12/12 13:26:29;;;;;;;;;;;-2.30;99.90;;;;;;5075352;28;19920;-67
2022/12/12 13:29:02;;;;;;;;;;;-2.40;99.90;;;;;;5075298;28;20280;-67
2022/12/12 13:31:43;;;;;;;;;;;-2.50;99.90;;;;;;5075127;28;20310;-67
2022/12/12 13:34:13;;;;;;;;;;;-2.50;99.90;;;;;;5074896;28;19940;-67
2022/12/12 13:36:41;;;;;;;;;;;-2.50;99.90;;;;;;5074682;28;19958;-67
2022/12/12 13:39:07;;;;;;;;;;;-2.60;99.90;;;;;;5074872;28;20030;-67
2022/12/12 13:41:52;;;;;;;;;;;-2.60;99.90;;;;;;5074925;28;19958;-67
2022/12/12 13:44:32;;;;;;;;;;;-2.70;99.90;;;;;;5074524;28;19958;-67
2022/12/12 13:46:58;;;;;;;;;;;-2.80;99.90;;;;;;5074522;28;19909;-65
2022/12/12 13:49:29;;;;;;;;;;;-2.90;99.90;;;;;;5074787;28;20414;-65
2022/12/12 13:52:33;;;;;;;;;;;-2.90;99.90;;;;;;5074361;28;20003;-67
2022/12/12 13:55:11;;;;;;;;;;;-3.00;99.90;;;;;;5072386;28;19914;-67
2022/12/12 13:57:55;;;;;;;;;;;-3.10;99.90;;;;;;5072229;28;19916;-67
2022/12/12 14:00:21;;;;;;;;;;;-3.10;99.90;;;;;;5073489;28;20284;-67
2022/12/12 14:02:52;;;;;;;;;;;-3.20;99.90;;;;;;5074571;28;19916;-67
2022/12/12 14:05:28;;;;;;;;;;;-3.30;99.90;;;;;;5074752;28;20272;-67
2022/12/12 14:07:59;;;;;;;;;;;-3.30;99.90;;;;;;5072987;28;19993;-67
2022/12/12 14:10:33;;;;;;;;;;;-3.40;99.90;;;;;;5074478;28;19909;-67
2022/12/12 14:13:38;;;;;;;;;;;-3.40;99.90;;;;;;5072971;28;19996;-67
2022/12/12 14:16:06;;;;;;;;;;;-3.40;99.90;;;;;;5072545;28;20300;-67
2022/12/12 14:18:34;;;;;;;;;;;-3.40;99.90;;;;;;5072620;28;19965;-68
2022/12/12 14:21:12;;;;;;;;;;;-3.40;99.90;;;;;;5072186;28;20387;-67
2022/12/12 14:23:39;;;;;;;;;;;-3.50;99.90;;;;;;5074726;28;20344;-67
2022/12/12 14:26:24;;;;;;;;;;;-3.50;99.90;;;;;;5074055;28;20390;-67
2022/12/12 14:29:08;;;;;;;;;;;-3.50;99.90;;;;;;5074280;28;20351;-67
2022/12/12 14:31:38;;;;;;;;;;;-3.50;99.90;;;;;;5073929;28;20462;-67
2022/12/12 14:34:22;;;;;;;;;;;-3.50;99.90;;;;;;5076271;22;20596;-79
2022/12/12 14:36:57;;;;;;;;;;;-3.50;99.90;;;;;;5055032;28;19909;-80
2022/12/12 14:39:25;;;;;;;;;;;-3.50;99.90;;;;;;5055987;28;19917;-80
2022/12/12 14:41:51;;;;;;;;;;;-3.60;99.90;;;;;;5053359;28;20047;-79
2022/12/12 14:44:23;;;;;;;;;;;-3.70;99.90;;;;;;5054721;28;19916;-80
2022/12/12 14:46:49;;;;;;;;;;;-3.80;99.90;;;;;;5054193;28;20422;-80